Pagrindinis puslapis
METAR-TAF:

METAR-TAF

Oro uostai :

Guijangas, Kinija

platuma: 26-32-19N, ilguma: 106-48-03E, Aukštis: 1139 m

Dabartinis oras

Ataskaita buvo paskelbta 37 minutes, ne 13:00 UTC
Vėjas 2 kt nuo kintamojo kryptimis
Temperatūra 12°C
Drėgmė 82%
Slėgis 1022 hPa
Matomumas 10 km arba daugiau
Su prošvaistėmis ne aukštis 1500 ft
Apsiniaukę ne aukštis 3300 ft

METAR: ZUGY 211300Z VRB01MPS 9999 BKN015 OVC033 12/09 Q1022 NOSIG

Laikas: 21:37 (13:37 UTC)

Prognozė

Ataskaita buvo paskelbta 4 valandos ir 36 minutes, ne 09:01 UTC
Prognozė galioja nuo 21 metu 12 UTC su 22 metu 12 UTC
Vėjas 6 kt iš Pietų
Matomumas: 6000 m
Išsisklaidę debesys ne aukštis 1500 ft
Apsiniaukę ne aukštis 3000 ft

TAF: ZUGY 210901Z 2112/2212 17003MPS 6000 SCT015 OVC030 TX16/2207Z TN10/2121Z

Orai ataskaitas ir orų prognozės (METAR, TAF).

turimą stotys yra geltonos ir raudonos taškus žemėlapyje.

Perkelti pele per norėdami pamatyti stoties vardą.

Tada spustelėkite, norėdami matyti oro stebėjimo ir prognozės.

Norėdami pakeisti žemėlapį: spustelėkite ant žalios mygtukų su juodo kryžiaus žemyn,; žalią mygtuką su brūkšneliu, jei norite nutolinti; arba žalių rodyklių gretimoms žemėlapius.


METAR-TAF: